Time;durP1;ratioP1;P1;durP2;ratioP2;P2;SDS_P1;SDS_P2;PMS_P1;PMS_P2;Temp;Humidity;BMP_temperature;BMP_pressure;BME280_temperature;BME280_humidity;BME280_pressure;Samples;Min_cycle;Max_cycle;Signal;HPM_P1;HPM_P2
2022/06/30 00:00:43;;;;;;;;;;;;;;;;;;5057842;28;20344;-30
2022/06/30 00:03:09;;;;;;;;;;;;;;;;;;5057772;28;19966;-30
2022/06/30 00:05:35;;;;;;;;;;;;;;;;;;5058412;28;20247;-30
2022/06/30 00:08:01;;;;;;;;;;;;;;;;;;5057953;28;20275;-30
2022/06/30 00:10:27;;;;;;;;;;;;;;;;;;5057516;28;19974;-30
2022/06/30 00:12:53;;;;;;;;;;;;;;;;;;5057668;28;19913;-30
2022/06/30 00:15:20;;;;;;;;;;;;;;;;;;5057633;28;20305;-31
2022/06/30 00:17:46;;;;;;;;;;;;;;;;;;5057843;28;19995;-30
2022/06/30 00:20:12;;;;;;;;;;;;;;;;;;5057489;28;20013;-30
2022/06/30 00:22:38;;;;;;;;;;;;;;;;;;5056405;28;19913;-30
2022/06/30 00:25:04;;;;;;;;;;;;;;;;;;5057444;28;19913;-30
2022/06/30 00:27:30;;;;;;;;;;;;;;;;;;5057562;28;19970;-30
2022/06/30 00:29:56;;;;;;;;;;;;;;;;;;5057341;28;19948;-30
2022/06/30 00:32:22;;;;;;;;;;;;;;;;;;5057416;28;20277;-30
2022/06/30 00:34:48;;;;;;;;;;;;;;;;;;5057024;28;19971;-30
2022/06/30 00:37:14;;;;;;;;;;;;;;;;;;5057498;28;20003;-31
2022/06/30 00:39:40;;;;;;;;;;;;;;;;;;5057400;28;19919;-30
2022/06/30 00:42:06;;;;;;;;;;;;;;;;;;5057281;28;19908;-30
2022/06/30 00:44:32;;;;;;;;;;;;;;;;;;5056993;28;19944;-30
2022/06/30 00:46:58;;;;;;;;;;;;;;;;;;5056977;28;19920;-30
2022/06/30 00:49:24;;;;;;;;;;;;;;;;;;5057536;28;20407;-30
2022/06/30 00:51:50;;;;;;;;;;;;;;;;;;5056966;28;19940;-30
2022/06/30 00:54:16;;;;;;;;;;;;;;;;;;5057426;28;20323;-30
2022/06/30 00:56:42;;;;;;;;;;;;;;;;;;5057333;28;19913;-30
2022/06/30 00:59:08;;;;;;;;;;;;;;;;;;5056767;28;20255;-31
2022/06/30 01:01:34;;;;;;;;;;;;;;;;;;5056720;28;20008;-30
2022/06/30 01:04:00;;;;;;;;;;;;;;;;;;5056432;28;20007;-30
2022/06/30 01:06:26;;;;;;;;;;;;;;;;;;5056532;28;20397;-31
2022/06/30 01:08:52;;;;;;;;;;;;;;;;;;5056869;28;19912;-30
2022/06/30 01:14:03;;;;;;;;;;;;;;;;;;5056469;28;20012;-30
2022/06/30 01:16:29;;;;;;;;;;;;;;;;;;5056515;28;19920;-30
2022/06/30 01:18:55;;;;;;;;;;;;;;;;;;5056697;28;19913;-30
2022/06/30 01:21:21;;;;;;;;;;;;;;;;;;5056918;28;19913;-30
2022/06/30 01:23:47;;;;;;;;;;;;;;;;;;5056233;28;19921;-30
2022/06/30 01:26:13;;;;;;;;;;;;;;;;;;5056513;28;19917;-30
2022/06/30 01:28:39;;;;;;;;;;;;;;;;;;5056534;28;20358;-30
2022/06/30 01:31:05;;;;;;;;;;;;;;;;;;5056048;28;19983;-30
2022/06/30 01:33:31;;;;;;;;;;;;;;;;;;5056333;28;19951;-30
2022/06/30 01:35:57;;;;;;;;;;;;;;;;;;5056063;28;19916;-30
2022/06/30 01:38:23;;;;;;;;;;;;;;;;;;5056259;28;19917;-30
2022/06/30 01:40:49;;;;;;;;;;;;;;;;;;5055949;28;20354;-30
2022/06/30 01:43:15;;;;;;;;;;;;;;;;;;5056458;28;19916;-30
2022/06/30 01:45:41;;;;;;;;;;;;;;;;;;5055300;28;19912;-30
2022/06/30 01:48:07;;;;;;;;;;;;;;;;;;5054900;28;19909;-30
2022/06/30 01:50:33;;;;;;;;;;;;;;;;;;5056242;28;19925;-30
2022/06/30 01:52:59;;;;;;;;;;;;;;;;;;5055966;28;19919;-31
2022/06/30 01:55:25;;;;;;;;;;;;;;;;;;5055752;28;20416;-30
2022/06/30 01:57:51;;;;;;;;;;;;;;;;;;5055685;28;20015;-30
2022/06/30 02:00:17;;;;;;;;;;;;;;;;;;5055626;28;20001;-30
2022/06/30 02:02:43;;;;;;;;;;;;;;;;;;5055368;28;19928;-30
2022/06/30 02:05:09;;;;;;;;;;;;;;;;;;5055810;28;19917;-30
2022/06/30 02:07:36;;;;;;;;;;;;;;;;;;5055477;28;19913;-30
2022/06/30 02:10:02;;;;;;;;;;;;;;;;;;5055410;28;20252;-31
2022/06/30 02:12:46;;;;;;;;;;;;;;;;;;5055387;28;19913;-30
2022/06/30 02:15:12;;;;;;;;;;;;;;;;;;5055429;28;19917;-30
2022/06/30 02:17:38;;;;;;;;;;;;;;;;;;5055638;28;19913;-30
2022/06/30 02:20:04;;;;;;;;;;;;;;;;;;5055838;28;19913;-30
2022/06/30 02:22:30;;;;;;;;;;;;;;;;;;5055451;28;19923;-30
2022/06/30 02:24:56;;;;;;;;;;;;;;;;;;5055295;28;20255;-30
2022/06/30 02:27:24;;;;;;;;;;;;;;;;;;5055171;28;19952;-30
2022/06/30 02:29:51;;;;;;;;;;;;;;;;;;5055153;28;19962;-30
2022/06/30 02:32:17;;;;;;;;;;;;;;;;;;5055240;28;19967;-30
2022/06/30 02:34:43;;;;;;;;;;;;;;;;;;5054182;28;19971;-30
2022/06/30 02:37:09;;;;;;;;;;;;;;;;;;5055134;28;20255;-30
2022/06/30 02:39:35;;;;;;;;;;;;;;;;;;5055602;28;19913;-30
2022/06/30 02:42:01;;;;;;;;;;;;;;;;;;5055268;28;19909;-30
2022/06/30 02:44:27;;;;;;;;;;;;;;;;;;5055252;28;19923;-31
2022/06/30 02:46:54;;;;;;;;;;;;;;;;;;5055204;28;19913;-30
2022/06/30 02:49:20;;;;;;;;;;;;;;;;;;5055812;28;19912;-30
2022/06/30 02:51:46;;;;;;;;;;;;;;;;;;5054798;28;20032;-30
2022/06/30 02:54:12;;;;;;;;;;;;;;;;;;5055462;28;19971;-30
2022/06/30 02:56:38;;;;;;;;;;;;;;;;;;5054943;28;19952;-31
2022/06/30 02:59:04;;;;;;;;;;;;;;;;;;5057228;28;20458;-31
2022/06/30 03:01:30;;;;;;;;;;;;;;;;;;5059309;28;20018;-30
2022/06/30 03:03:56;;;;;;;;;;;;;;;;;;5058718;28;19989;-31
2022/06/30 03:06:22;;;;;;;;;;;;;;;;;;5058894;28;20244;-30
2022/06/30 03:08:48;;;;;;;;;;;;;;;;;;5058835;28;20011;-30
2022/06/30 03:11:17;;;;;;;;;;;;;;;;;;5059011;28;20019;-30
2022/06/30 03:13:44;;;;;;;;;;;;;;;;;;5058661;28;19909;-30
2022/06/30 03:16:10;;;;;;;;;;;;;;;;;;5058741;28;19924;-31
2022/06/30 03:18:36;;;;;;;;;;;;;;;;;;5059284;28;20332;-30
2022/06/30 03:21:02;;;;;;;;;;;;;;;;;;5059178;28;19974;-30
2022/06/30 03:23:28;;;;;;;;;;;;;;;;;;5058529;28;19913;-31
2022/06/30 03:25:54;;;;;;;;;;;;;;;;;;5058842;28;19909;-30
2022/06/30 03:28:20;;;;;;;;;;;;;;;;;;5059041;28;19913;-31
2022/06/30 03:30:47;;;;;;;;;;;;;;;;;;5058356;28;19917;-31
2022/06/30 03:33:13;;;;;;;;;;;;;;;;;;5058378;28;19909;-30
2022/06/30 03:35:39;;;;;;;;;;;;;;;;;;5058346;28;19912;-30
2022/06/30 03:38:06;;;;;;;;;;;;;;;;;;5058309;28;19913;-30
2022/06/30 03:40:32;;;;;;;;;;;;;;;;;;5058225;28;19912;-31
2022/06/30 03:42:58;;;;;;;;;;;;;;;;;;5058426;28;19970;-31
2022/06/30 03:45:24;;;;;;;;;;;;;;;;;;5058435;28;19920;-30
2022/06/30 03:47:50;;;;;;;;;;;;;;;;;;5058394;28;19919;-30
2022/06/30 03:50:16;;;;;;;;;;;;;;;;;;5058068;28;19913;-31
2022/06/30 03:52:42;;;;;;;;;;;;;;;;;;5057993;28;19920;-30
2022/06/30 03:55:08;;;;;;;;;;;;;;;;;;5058029;28;19924;-30
2022/06/30 03:57:34;;;;;;;;;;;;;;;;;;5058457;28;20332;-30
2022/06/30 04:00:00;;;;;;;;;;;;;;;;;;5058426;28;19963;-30
2022/06/30 04:02:26;;;;;;;;;;;;;;;;;;5057880;28;19934;-30
2022/06/30 04:04:52;;;;;;;;;;;;;;;;;;5057614;28;19940;-30
2022/06/30 04:07:18;;;;;;;;;;;;;;;;;;5057850;28;19909;-30
2022/06/30 04:09:44;;;;;;;;;;;;;;;;;;5057067;28;19920;-30
2022/06/30 04:12:10;;;;;;;;;;;;;;;;;;5057248;28;19957;-31
2022/06/30 04:14:36;;;;;;;;;;;;;;;;;;5057429;28;20267;-31
2022/06/30 04:17:02;;;;;;;;;;;;;;;;;;5057631;28;20007;-31
2022/06/30 04:19:28;;;;;;;;;;;;;;;;;;5057336;28;19920;-31
2022/06/30 04:21:54;;;;;;;;;;;;;;;;;;5057783;28;19909;-31
2022/06/30 04:24:20;;;;;;;;;;;;;;;;;;5057301;28;19920;-31
2022/06/30 04:26:46;;;;;;;;;;;;;;;;;;5057923;28;19995;-31
2022/06/30 04:29:12;;;;;;;;;;;;;;;;;;5057264;28;20406;-31
2022/06/30 04:34:22;;;;;;;;;;;;;;;;;;5057263;28;19990;-31
2022/06/30 04:36:48;;;;;;;;;;;;;;;;;;5057211;28;19912;-31
2022/06/30 04:39:14;;;;;;;;;;;;;;;;;;5057135;28;19931;-31
2022/06/30 04:41:40;;;;;;;;;;;;;;;;;;5057041;28;19919;-31
2022/06/30 04:44:06;;;;;;;;;;;;;;;;;;5055949;28;20015;-31
2022/06/30 04:46:32;;;;;;;;;;;;;;;;;;5057415;28;19913;-31
2022/06/30 04:48:58;;;;;;;;;;;;;;;;;;5057077;28;19912;-31
2022/06/30 04:51:24;;;;;;;;;;;;;;;;;;5056582;28;19923;-31
2022/06/30 04:53:50;;;;;;;;;;;;;;;;;;5056954;28;20270;-31
2022/06/30 04:56:17;;;;;;;;;;;;;;;;;;5057182;28;19958;-31
2022/06/30 04:58:43;;;;;;;;;;;;;;;;;;5056746;28;19917;-30
2022/06/30 05:01:09;;;;;;;;;;;;;;;;;;5056613;28;19920;-31
2022/06/30 05:03:35;;;;;;;;;;;;;;;;;;5056393;28;19917;-31
2022/06/30 05:06:03;;;;;;;;;;;;;;;;;;5056748;28;19913;-31
2022/06/30 05:08:29;;;;;;;;;;;;;;;;;;5056779;28;20255;-31
2022/06/30 05:10:55;;;;;;;;;;;;;;;;;;5056392;28;19927;-31
2022/06/30 05:13:21;;;;;;;;;;;;;;;;;;5056511;28;19996;-31
2022/06/30 05:15:46;;;;;;;;;;;;;;;;;;5056385;28;19913;-31
2022/06/30 05:18:12;;;;;;;;;;;;;;;;;;5056506;28;19994;-31
2022/06/30 05:20:39;;;;;;;;;;;;;;;;;;5055535;28;19924;-31
2022/06/30 05:23:05;;;;;;;;;;;;;;;;;;5055917;28;19939;-31
2022/06/30 05:28:15;;;;;;;;;;;;;;;;;;5056384;28;19962;-31
2022/06/30 05:30:41;;;;;;;;;;;;;;;;;;5055997;28;19913;-31
2022/06/30 05:33:07;;;;;;;;;;;;;;;;;;5055924;28;19975;-31
2022/06/30 05:35:33;;;;;;;;;;;;;;;;;;5056262;28;20294;-32
2022/06/30 05:38:00;;;;;;;;;;;;;;;;;;5056006;28;19920;-31
2022/06/30 05:40:26;;;;;;;;;;;;;;;;;;5056151;28;19913;-31
2022/06/30 05:42:52;;;;;;;;;;;;;;;;;;5056141;28;20291;-31
2022/06/30 05:45:18;;;;;;;;;;;;;;;;;;5055774;28;19913;-31
2022/06/30 05:47:44;;;;;;;;;;;;;;;;;;5055790;28;20010;-31
2022/06/30 05:50:10;;;;;;;;;;;;;;;;;;5055686;28;19908;-31
2022/06/30 05:52:36;;;;;;;;;;;;;;;;;;5055553;28;20008;-31
2022/06/30 05:55:02;;;;;;;;;;;;;;;;;;5055596;28;19952;-31
2022/06/30 05:57:28;;;;;;;;;;;;;;;;;;5055712;28;19913;-31
2022/06/30 05:59:54;;;;;;;;;;;;;;;;;;5055894;28;19962;-31
2022/06/30 06:02:20;;;;;;;;;;;;;;;;;;5493073;22;20160;-25
2022/06/30 06:04:46;;;;;;;;;;;;;;;;;;5035940;28;19956;-25
2022/06/30 06:07:12;;;;;;;;;;;;;;;;;;5034636;28;20013;-26
2022/06/30 06:09:38;;;;;;;;;;;;;;;;;;5035385;28;19952;-25
2022/06/30 06:12:04;;;;;;;;;;;;;;;;;;5035299;28;19947;-26
2022/06/30 06:14:30;;;;;;;;;;;;;;;;;;5034374;28;19925;-26
2022/06/30 06:16:56;;;;;;;;;;;;;;;;;;5035046;28;19913;-31
2022/06/30 06:19:22;;;;;;;;;;;;;;;;;;5035022;28;19913;-25
2022/06/30 06:21:48;;;;;;;;;;;;;;;;;;5034805;28;19909;-26
2022/06/30 06:24:14;;;;;;;;;;;;;;;;;;5035043;28;19913;-25
2022/06/30 06:26:40;;;;;;;;;;;;;;;;;;5034782;28;19942;-26
2022/06/30 06:29:06;;;;;;;;;;;;;;;;;;5034788;28;20035;-26
2022/06/30 06:31:32;;;;;;;;;;;;;;;;;;5034625;28;19917;-26
2022/06/30 06:33:58;;;;;;;;;;;;;;;;;;5034636;28;20024;-26
2022/06/30 06:36:24;;;;;;;;;;;;;;;;;;5035118;28;19956;-26
2022/06/30 06:38:51;;;;;;;;;;;;;;;;;;5034807;28;19913;-26
2022/06/30 06:41:20;;;;;;;;;;;;;;;;;;5034755;28;19953;-26
2022/06/30 06:43:47;;;;;;;;;;;;;;;;;;5034995;28;19909;-26
2022/06/30 06:46:13;;;;;;;;;;;;;;;;;;5034725;28;19913;-26
2022/06/30 06:48:39;;;;;;;;;;;;;;;;;;5034708;28;20334;-26
2022/06/30 06:51:05;;;;;;;;;;;;;;;;;;5034717;28;19928;-26
2022/06/30 06:53:31;;;;;;;;;;;;;;;;;;5034579;28;19909;-28
2022/06/30 06:55:57;;;;;;;;;;;;;;;;;;5033687;28;19909;-26
2022/06/30 06:58:23;;;;;;;;;;;;;;;;;;5035064;28;19920;-26
2022/06/30 07:00:50;;;;;;;;;;;;;;;;;;5034584;28;20044;-26
2022/06/30 07:03:16;;;;;;;;;;;;;;;;;;5033264;28;19929;-26
2022/06/30 07:05:43;;;;;;;;;;;;;;;;;;5034464;28;19913;-26
2022/06/30 07:08:09;;;;;;;;;;;;;;;;;;5034413;28;19910;-25
2022/06/30 07:10:35;;;;;;;;;;;;;;;;;;5034393;28;19957;-26
2022/06/30 07:13:01;;;;;;;;;;;;;;;;;;5033422;28;20310;-27
2022/06/30 07:15:27;;;;;;;;;;;;;;;;;;5034442;28;19913;-26
2022/06/30 07:17:53;;;;;;;;;;;;;;;;;;5034406;28;19909;-25
2022/06/30 07:20:19;;;;;;;;;;;;;;;;;;5034946;28;19913;-26
2022/06/30 07:22:45;;;;;;;;;;;;;;;;;;5034335;28;19914;-26
2022/06/30 07:25:12;;;;;;;;;;;;;;;;;;5034256;28;20063;-26
2022/06/30 07:27:38;;;;;;;;;;;;;;;;;;5035094;28;19913;-25
2022/06/30 07:30:04;;;;;;;;;;;;;;;;;;5033469;28;20332;-25
2022/06/30 07:32:30;;;;;;;;;;;;;;;;;;5034346;28;19921;-34
2022/06/30 07:34:56;;;;;;;;;;;;;;;;;;5034351;28;19913;-25
2022/06/30 07:37:22;;;;;;;;;;;;;;;;;;5034922;28;19909;-26
2022/06/30 07:39:48;;;;;;;;;;;;;;;;;;5034414;28;19920;-25
2022/06/30 07:42:14;;;;;;;;;;;;;;;;;;5034277;28;19909;-25
2022/06/30 07:44:41;;;;;;;;;;;;;;;;;;5035851;28;20004;-26
2022/06/30 07:47:07;;;;;;;;;;;;;;;;;;5038052;28;19952;-25
2022/06/30 07:49:33;;;;;;;;;;;;;;;;;;5037987;28;19909;-25
2022/06/30 07:52:00;;;;;;;;;;;;;;;;;;5037765;28;19917;-25
2022/06/30 07:54:26;;;;;;;;;;;;;;;;;;5037842;28;20267;-26
2022/06/30 07:56:52;;;;;;;;;;;;;;;;;;5038029;28;19909;-26
2022/06/30 07:59:18;;;;;;;;;;;;;;;;;;5037875;28;19923;-25
2022/06/30 08:01:44;;;;;;;;;;;;;;;;;;5037682;28;19990;-25
2022/06/30 08:04:11;;;;;;;;;;;;;;;;;;5037456;28;19933;-25
2022/06/30 08:06:37;;;;;;;;;;;;;;;;;;5037892;28;20269;-25
2022/06/30 08:09:03;;;;;;;;;;;;;;;;;;5037870;28;19913;-26
2022/06/30 08:11:29;;;;;;;;;;;;;;;;;;5037797;28;19939;-25
2022/06/30 08:13:56;;;;;;;;;;;;;;;;;;5036446;28;19988;-25
2022/06/30 08:16:22;;;;;;;;;;;;;;;;;;5037345;28;19913;-26
2022/06/30 08:18:48;;;;;;;;;;;;;;;;;;5037431;28;19952;-25
2022/06/30 08:21:14;;;;;;;;;;;;;;;;;;5037392;28;19909;-24
2022/06/30 08:23:40;;;;;;;;;;;;;;;;;;5036098;28;19917;-25
2022/06/30 08:26:07;;;;;;;;;;;;;;;;;;5037839;28;20231;-25
2022/06/30 08:28:33;;;;;;;;;;;;;;;;;;5037112;28;19917;-24
2022/06/30 08:30:59;;;;;;;;;;;;;;;;;;5036261;28;19965;-25
2022/06/30 08:33:25;;;;;;;;;;;;;;;;;;5037093;28;19909;-25
2022/06/30 08:35:52;;;;;;;;;;;;;;;;;;5037310;28;20011;-25
2022/06/30 08:38:18;;;;;;;;;;;;;;;;;;5037459;28;20256;-24
2022/06/30 08:43:29;;;;;;;;;;;;;;;;;;5036959;28;20012;-25
2022/06/30 08:45:55;;;;;;;;;;;;;;;;;;5037452;28;19986;-25
2022/06/30 08:48:21;;;;;;;;;;;;;;;;;;5036765;28;19913;-25
2022/06/30 08:50:47;;;;;;;;;;;;;;;;;;5037340;28;19917;-24
2022/06/30 08:53:13;;;;;;;;;;;;;;;;;;5036692;28;20344;-25
2022/06/30 08:55:39;;;;;;;;;;;;;;;;;;5036837;28;20351;-25
2022/06/30 08:58:05;;;;;;;;;;;;;;;;;;5036650;28;19932;-25
2022/06/30 09:00:31;;;;;;;;;;;;;;;;;;5037198;28;19919;-25
2022/06/30 09:02:57;;;;;;;;;;;;;;;;;;5036216;28;19994;-25
2022/06/30 09:05:24;;;;;;;;;;;;;;;;;;5036712;28;19910;-25
2022/06/30 09:07:50;;;;;;;;;;;;;;;;;;5036468;28;19920;-25
2022/06/30 09:10:16;;;;;;;;;;;;;;;;;;5036353;28;19949;-25
2022/06/30 09:12:42;;;;;;;;;;;;;;;;;;5036412;28;19944;-25
2022/06/30 09:15:08;;;;;;;;;;;;;;;;;;5036312;28;19913;-25
2022/06/30 09:17:34;;;;;;;;;;;;;;;;;;5036162;28;19949;-24
2022/06/30 09:20:00;;;;;;;;;;;;;;;;;;5036286;28;19970;-25
2022/06/30 09:22:26;;;;;;;;;;;;;;;;;;5036101;28;19921;-25
2022/06/30 09:24:52;;;;;;;;;;;;;;;;;;5036563;28;19909;-24
2022/06/30 09:27:19;;;;;;;;;;;;;;;;;;5035786;28;19909;-25
2022/06/30 09:29:45;;;;;;;;;;;;;;;;;;5035695;28;19971;-25
2022/06/30 09:32:11;;;;;;;;;;;;;;;;;;5035541;28;19916;-25
2022/06/30 09:34:38;;;;;;;;;;;;;;;;;;5036026;28;20362;-25
2022/06/30 09:37:04;;;;;;;;;;;;;;;;;;5035771;28;19924;-25
2022/06/30 09:39:30;;;;;;;;;;;;;;;;;;5034775;28;19928;-25
2022/06/30 09:41:56;;;;;;;;;;;;;;;;;;5035942;28;19913;-24
2022/06/30 09:44:22;;;;;;;;;;;;;;;;;;5035857;28;19909;-25
2022/06/30 09:46:48;;;;;;;;;;;;;;;;;;5035529;28;19921;-25
2022/06/30 09:49:14;;;;;;;;;;;;;;;;;;5036040;28;19913;-24
2022/06/30 09:51:41;;;;;;;;;;;;;;;;;;5035278;28;19917;-24
2022/06/30 09:54:09;;;;;;;;;;;;;;;;;;5033510;28;21289;-25
2022/06/30 09:56:35;;;;;;;;;;;;;;;;;;5035203;28;20013;-24
2022/06/30 09:59:01;;;;;;;;;;;;;;;;;;5035280;28;20007;-24
2022/06/30 10:01:27;;;;;;;;;;;;;;;;;;5035698;28;19913;-25
2022/06/30 10:03:58;;;;;;;;;;;;;;;;;;5034971;28;19917;-24
2022/06/30 10:06:25;;;;;;;;;;;;;;;;;;5035366;28;19909;-25
2022/06/30 10:08:51;;;;;;;;;;;;;;;;;;5034681;28;19917;-24
2022/06/30 10:11:17;;;;;;;;;;;;;;;;;;5034920;28;20305;-24
2022/06/30 10:13:43;;;;;;;;;;;;;;;;;;5034845;28;19975;-24
2022/06/30 10:16:09;;;;;;;;;;;;;;;;;;5035490;28;19945;-25
2022/06/30 10:18:35;;;;;;;;;;;;;;;;;;5034999;28;19913;-25
2022/06/30 10:21:01;;;;;;;;;;;;;;;;;;5033832;28;19913;-24
2022/06/30 10:23:27;;;;;;;;;;;;;;;;;;5034857;28;20336;-24
2022/06/30 10:25:54;;;;;;;;;;;;;;;;;;5034906;28;19915;-25
2022/06/30 10:28:20;;;;;;;;;;;;;;;;;;5034904;28;19941;-25
2022/06/30 10:30:46;;;;;;;;;;;;;;;;;;5034743;28;19920;-25
2022/06/30 10:33:12;;;;;;;;;;;;;;;;;;5034649;28;19913;-24
2022/06/30 10:35:38;;;;;;;;;;;;;;;;;;5033654;28;19963;-25
2022/06/30 10:38:05;;;;;;;;;;;;;;;;;;5034713;28;19917;-26
2022/06/30 10:40:31;;;;;;;;;;;;;;;;;;5034964;28;20263;-25
2022/06/30 10:42:57;;;;;;;;;;;;;;;;;;5035159;28;19972;-24
2022/06/30 10:45:23;;;;;;;;;;;;;;;;;;5034716;28;19909;-26
2022/06/30 10:47:49;;;;;;;;;;;;;;;;;;5035087;28;20314;-25
2022/06/30 10:50:16;;;;;;;;;;;;;;;;;;5033537;28;19992;-25
2022/06/30 10:52:42;;;;;;;;;;;;;;;;;;5034904;28;19962;-25
2022/06/30 10:55:08;;;;;;;;;;;;;;;;;;5034457;28;19909;-25
2022/06/30 10:57:34;;;;;;;;;;;;;;;;;;5033512;28;20004;-25
2022/06/30 11:00:00;;;;;;;;;;;;;;;;;;5034470;28;19920;-25
2022/06/30 11:02:26;;;;;;;;;;;;;;;;;;5034436;28;20387;-25
2022/06/30 11:04:52;;;;;;;;;;;;;;;;;;5034793;28;19917;-25
2022/06/30 11:07:19;;;;;;;;;;;;;;;;;;5034959;28;20254;-25
2022/06/30 11:09:49;;;;;;;;;;;;;;;;;;5034488;28;19996;-25
2022/06/30 11:12:15;;;;;;;;;;;;;;;;;;5034482;28;20264;-25
2022/06/30 11:14:41;;;;;;;;;;;;;;;;;;5034371;28;19917;-25
2022/06/30 11:17:07;;;;;;;;;;;;;;;;;;5034353;28;20328;-25
2022/06/30 11:19:35;;;;;;;;;;;;;;;;;;5036426;28;19920;-25
2022/06/30 11:22:01;;;;;;;;;;;;;;;;;;5038121;28;19919;-25
2022/06/30 11:24:28;;;;;;;;;;;;;;;;;;5038521;28;19920;-25
2022/06/30 11:29:38;;;;;;;;;;;;;;;;;;5038448;28;19955;-25
2022/06/30 11:32:04;;;;;;;;;;;;;;;;;;5036913;28;19951;-25
2022/06/30 11:34:35;;;;;;;;;;;;;;;;;;5037037;28;19944;-25
2022/06/30 11:37:01;;;;;;;;;;;;;;;;;;5038018;28;19920;-25
2022/06/30 11:39:28;;;;;;;;;;;;;;;;;;5038613;28;19913;-25
2022/06/30 11:41:58;;;;;;;;;;;;;;;;;;5037925;28;19909;-25
2022/06/30 11:44:24;;;;;;;;;;;;;;;;;;5038041;28;20294;-25
2022/06/30 11:46:50;;;;;;;;;;;;;;;;;;5037921;28;19957;-24
2022/06/30 11:49:16;;;;;;;;;;;;;;;;;;5038155;28;19952;-25
2022/06/30 11:51:42;;;;;;;;;;;;;;;;;;5037569;28;19917;-25
2022/06/30 11:54:08;;;;;;;;;;;;;;;;;;5037769;28;20003;-25
2022/06/30 11:56:34;;;;;;;;;;;;;;;;;;5038023;28;20012;-25
2022/06/30 11:59:00;;;;;;;;;;;;;;;;;;5038071;28;19924;-25
2022/06/30 12:01:26;;;;;;;;;;;;;;;;;;5037395;28;19905;-25
2022/06/30 12:03:52;;;;;;;;;;;;;;;;;;5037066;28;19917;-26
2022/06/30 12:06:19;;;;;;;;;;;;;;;;;;5037893;28;20351;-25
2022/06/30 12:08:44;;;;;;;;;;;;;;;;;;5037489;28;19979;-25
2022/06/30 12:11:10;;;;;;;;;;;;;;;;;;5037405;28;19933;-25
2022/06/30 12:13:36;;;;;;;;;;;;;;;;;;5037412;28;19982;-25
2022/06/30 12:16:02;;;;;;;;;;;;;;;;;;5037866;28;19913;-25
2022/06/30 12:18:28;;;;;;;;;;;;;;;;;;5037853;28;20279;-25
2022/06/30 12:20:54;;;;;;;;;;;;;;;;;;5038071;28;20035;-25
2022/06/30 12:23:20;;;;;;;;;;;;;;;;;;5037338;28;20007;-25
2022/06/30 12:25:46;;;;;;;;;;;;;;;;;;5036384;28;19956;-25
2022/06/30 12:28:12;;;;;;;;;;;;;;;;;;5037946;28;19913;-25
2022/06/30 12:30:38;;;;;;;;;;;;;;;;;;5036835;28;20260;-25
2022/06/30 12:33:04;;;;;;;;;;;;;;;;;;5037390;28;19917;-25
2022/06/30 12:35:32;;;;;;;;;;;;;;;;;;5037232;28;19914;-26
2022/06/30 12:37:58;;;;;;;;;;;;;;;;;;5037515;28;20340;-25
2022/06/30 12:40:26;;;;;;;;;;;;;;;;;;5037272;28;20004;-25
2022/06/30 12:42:52;;;;;;;;;;;;;;;;;;5036836;28;20356;-25
2022/06/30 12:45:18;;;;;;;;;;;;;;;;;;5036924;28;19967;-25
2022/06/30 12:47:44;;;;;;;;;;;;;;;;;;5037543;28;19909;-26
2022/06/30 12:50:10;;;;;;;;;;;;;;;;;;5035498;28;19917;-25
2022/06/30 12:52:36;;;;;;;;;;;;;;;;;;5036078;28;19917;-25
2022/06/30 12:55:02;;;;;;;;;;;;;;;;;;5036948;28;19984;-26
2022/06/30 12:57:28;;;;;;;;;;;;;;;;;;5036661;28;19952;-26
2022/06/30 12:59:54;;;;;;;;;;;;;;;;;;5035953;28;19913;-26
2022/06/30 13:02:20;;;;;;;;;;;;;;;;;;5036508;28;20365;-26
2022/06/30 13:04:46;;;;;;;;;;;;;;;;;;5035579;28;19959;-26
2022/06/30 13:07:12;;;;;;;;;;;;;;;;;;5037162;28;19913;-26
2022/06/30 13:09:42;;;;;;;;;;;;;;;;;;5036380;28;19913;-27
2022/06/30 13:12:08;;;;;;;;;;;;;;;;;;5036262;28;19929;-26
2022/06/30 13:14:34;;;;;;;;;;;;;;;;;;5036353;28;19912;-26
2022/06/30 13:17:00;;;;;;;;;;;;;;;;;;5035300;28;19984;-26
2022/06/30 13:19:26;;;;;;;;;;;;;;;;;;5036771;28;19916;-25
2022/06/30 13:21:52;;;;;;;;;;;;;;;;;;5036592;28;19913;-26
2022/06/30 13:24:19;;;;;;;;;;;;;;;;;;5035982;28;19919;-26
2022/06/30 13:26:45;;;;;;;;;;;;;;;;;;5035040;28;20360;-26
2022/06/30 13:29:11;;;;;;;;;;;;;;;;;;5036503;28;19913;-27
2022/06/30 13:31:37;;;;;;;;;;;;;;;;;;5035821;28;19928;-26
2022/06/30 13:34:06;;;;;;;;;;;;;;;;;;5034933;28;19958;-26
2022/06/30 13:36:32;;;;;;;;;;;;;;;;;;5036247;28;19924;-26
2022/06/30 13:38:58;;;;;;;;;;;;;;;;;;5035835;28;19913;-26
2022/06/30 13:41:24;;;;;;;;;;;;;;;;;;5035867;28;19932;-26
2022/06/30 13:43:50;;;;;;;;;;;;;;;;;;5035313;28;20364;-26
2022/06/30 13:46:16;;;;;;;;;;;;;;;;;;5035904;28;19967;-26
2022/06/30 13:48:42;;;;;;;;;;;;;;;;;;5035604;28;19970;-26
2022/06/30 13:51:08;;;;;;;;;;;;;;;;;;5035782;28;19959;-26
2022/06/30 13:53:34;;;;;;;;;;;;;;;;;;5035484;28;19917;-26
2022/06/30 13:56:00;;;;;;;;;;;;;;;;;;5035474;28;19921;-26
2022/06/30 13:58:26;;;;;;;;;;;;;;;;;;5035968;28;19975;-26
2022/06/30 14:00:52;;;;;;;;;;;;;;;;;;5035804;28;20314;-26
2022/06/30 14:03:18;;;;;;;;;;;;;;;;;;5035174;28;20008;-26
2022/06/30 14:05:44;;;;;;;;;;;;;;;;;;5035314;28;19975;-26
2022/06/30 14:08:10;;;;;;;;;;;;;;;;;;5035309;28;19912;-26
2022/06/30 14:10:36;;;;;;;;;;;;;;;;;;5035255;28;20328;-26
2022/06/30 14:13:02;;;;;;;;;;;;;;;;;;5035323;28;19913;-30
2022/06/30 14:15:28;;;;;;;;;;;;;;;;;;5034131;28;19988;-26
2022/06/30 14:17:54;;;;;;;;;;;;;;;;;;5034291;28;19913;-26
2022/06/30 14:20:20;;;;;;;;;;;;;;;;;;5035155;28;20263;-26
2022/06/30 14:22:47;;;;;;;;;;;;;;;;;;5035587;28;20235;-25
2022/06/30 14:25:13;;;;;;;;;;;;;;;;;;5034994;28;19920;-26
2022/06/30 14:27:39;;;;;;;;;;;;;;;;;;5034935;28;19909;-26
2022/06/30 14:30:05;;;;;;;;;;;;;;;;;;5034897;28;19917;-37
2022/06/30 14:32:31;;;;;;;;;;;;;;;;;;5034803;28;19921;-26
2022/06/30 14:34:57;;;;;;;;;;;;;;;;;;5033904;28;20360;-26
2022/06/30 14:37:24;;;;;;;;;;;;;;;;;;5034882;28;19918;-25
2022/06/30 14:39:50;;;;;;;;;;;;;;;;;;5034800;28;19913;-25
2022/06/30 14:45:00;;;;;;;;;;;;;;;;;;5034834;28;19987;-26
2022/06/30 14:47:26;;;;;;;;;;;;;;;;;;5034911;28;19913;-26
2022/06/30 14:49:52;;;;;;;;;;;;;;;;;;5035014;28;20328;-25
2022/06/30 14:52:18;;;;;;;;;;;;;;;;;;5035098;28;19928;-26
2022/06/30 14:54:44;;;;;;;;;;;;;;;;;;5039488;28;19911;-26
2022/06/30 14:57:10;;;;;;;;;;;;;;;;;;5041326;28;19944;-25
2022/06/30 14:59:36;;;;;;;;;;;;;;;;;;5041430;28;19913;-25
2022/06/30 15:02:02;;;;;;;;;;;;;;;;;;5041029;28;20019;-27
2022/06/30 15:04:28;;;;;;;;;;;;;;;;;;5041187;28;20036;-26
2022/06/30 15:06:56;;;;;;;;;;;;;;;;;;5041133;28;19961;-25
2022/06/30 15:09:22;;;;;;;;;;;;;;;;;;5041347;28;19967;-25
2022/06/30 15:11:48;;;;;;;;;;;;;;;;;;5041326;28;19921;-26
2022/06/30 15:14:14;;;;;;;;;;;;;;;;;;5041205;28;20367;-26
2022/06/30 15:16:41;;;;;;;;;;;;;;;;;;5041663;28;19920;-26
2022/06/30 15:19:07;;;;;;;;;;;;;;;;;;5041238;28;19976;-25
2022/06/30 15:24:18;;;;;;;;;;;;;;;;;;5041821;28;19974;-26
2022/06/30 15:26:44;;;;;;;;;;;;;;;;;;5041206;28;20232;-25
2022/06/30 15:29:10;;;;;;;;;;;;;;;;;;5041175;28;20008;-26
2022/06/30 15:31:36;;;;;;;;;;;;;;;;;;5041088;28;19917;-26
2022/06/30 15:34:02;;;;;;;;;;;;;;;;;;5040739;28;19913;-26
2022/06/30 15:36:28;;;;;;;;;;;;;;;;;;5041261;28;19909;-26
2022/06/30 15:38:54;;;;;;;;;;;;;;;;;;5041129;28;20291;-25
2022/06/30 15:41:20;;;;;;;;;;;;;;;;;;5040760;28;19936;-26
2022/06/30 15:43:46;;;;;;;;;;;;;;;;;;5040784;28;19914;-26
2022/06/30 15:46:15;;;;;;;;;;;;;;;;;;5041042;28;19913;-25
2022/06/30 15:48:41;;;;;;;;;;;;;;;;;;5040779;28;19909;-26
2022/06/30 15:51:07;;;;;;;;;;;;;;;;;;5040725;28;19917;-26
2022/06/30 15:53:33;;;;;;;;;;;;;;;;;;5040613;28;19909;-26
2022/06/30 15:55:59;;;;;;;;;;;;;;;;;;5041219;28;20328;-25
2022/06/30 15:58:25;;;;;;;;;;;;;;;;;;5040854;28;19913;-26
2022/06/30 16:00:51;;;;;;;;;;;;;;;;;;5040946;28;19913;-26
2022/06/30 16:03:17;;;;;;;;;;;;;;;;;;5040372;28;19940;-26
2022/06/30 16:05:43;;;;;;;;;;;;;;;;;;5037976;28;19913;-26
2022/06/30 16:08:09;;;;;;;;;;;;;;;;;;5037576;28;20344;-26
2022/06/30 16:10:35;;;;;;;;;;;;;;;;;;5037691;28;19971;-26
2022/06/30 16:13:01;;;;;;;;;;;;;;;;;;5037598;28;20336;-26
2022/06/30 16:15:27;;;;;;;;;;;;;;;;;;5037943;28;19913;-25
2022/06/30 16:17:53;;;;;;;;;;;;;;;;;;5037346;28;20194;-26
2022/06/30 16:20:19;;;;;;;;;;;;;;;;;;5037820;28;19913;-26
2022/06/30 16:22:47;;;;;;;;;;;;;;;;;;5036262;28;19909;-26
2022/06/30 16:25:13;;;;;;;;;;;;;;;;;;5037426;28;19913;-26
2022/06/30 16:27:39;;;;;;;;;;;;;;;;;;5037385;28;19909;-26
2022/06/30 16:30:05;;;;;;;;;;;;;;;;;;5037393;28;20052;-26
2022/06/30 16:32:31;;;;;;;;;;;;;;;;;;5037091;28;20216;-26
2022/06/30 16:34:57;;;;;;;;;;;;;;;;;;5037125;28;19913;-26
2022/06/30 16:37:23;;;;;;;;;;;;;;;;;;5037024;28;20011;-26
2022/06/30 16:39:49;;;;;;;;;;;;;;;;;;5036974;28;19924;-26
2022/06/30 16:42:15;;;;;;;;;;;;;;;;;;5037052;28;19917;-26
2022/06/30 16:44:41;;;;;;;;;;;;;;;;;;5037140;28;19914;-26
2022/06/30 16:47:07;;;;;;;;;;;;;;;;;;5036822;28;20293;-25
2022/06/30 16:49:33;;;;;;;;;;;;;;;;;;5036766;28;19913;-26
2022/06/30 16:51:59;;;;;;;;;;;;;;;;;;5036539;28;20268;-26
2022/06/30 16:54:26;;;;;;;;;;;;;;;;;;5037207;28;19992;-26
2022/06/30 16:56:52;;;;;;;;;;;;;;;;;;5036642;28;20004;-25